Terminal Aerodrome Forecast
Issued by NWS

Home | Current Version | Previous Version | Graphics & Text | Print | Product List | Glossary On
Versions: 1 2 3 4 5 6 7 8 9 10 11 12 13 14 15 16 17 18
000
FTUS43 KMPX 252300
TAFRNH
TAF
KRNH 252328Z 2600/2624 13005KT P6SM OVC050
     FM261600 04005KT 6SM -SN BKN025 OVC040
     FM261900 36007KT 2SM -SN BR OVC015
     FM262300 33010KT 6SM -SN OVC018=

USA.gov is the U.S. government's official web portal to all federal, state and local government web resources and services.